Nehalem, Oregon
Current Conditions -  °F | °C
As of 8:35 AM on Wednesday 26 Nov 2014 (Local Time) from KTMK Reporting Station
Haze Haze  
Wind Chill: 54°   Ceiling: 4000
Heat Index: 54°   Visibility: 0.75mi
Dew Point: 52°   Wind: 0mph
Humidity: 94%   Direction: NA
Pressure: 30.15"   Gusts: NA
Location:  45.72°N, 123.89°W
Report Text: KTMK 261635Z AUTO 00000KT 3/4SM BR BKN040 12/11 A3015 RMK AO2
Loading
Personal Weather Stations






























Interactive Weather Map New forecast layout! Learn more

10-Day Weather Forecast

Advertisements
Track Severe Weather on mobile